Time;durP1;ratioP1;P1;durP2;ratioP2;P2;SDS_P1;SDS_P2;PMS_P1;PMS_P2;Temp;Humidity;BMP_temperature;BMP_pressure;BME280_temperature;BME280_humidity;BME280_pressure;Samples;Min_cycle;Max_cycle;Signal;HPM_P1;HPM_P2
2022/10/06 00:00:08;;;;;;;11.20;3.40;;;16.60;80.20;;;;;;5037905;28;20506;-76
2022/10/06 00:02:36;;;;;;;7.93;3.40;;;16.60;80.20;;;;;;5035329;28;20472;-75
2022/10/06 00:05:05;;;;;;;6.00;3.10;;;16.50;80.30;;;;;;5037440;28;20483;-74
2022/10/06 00:07:33;;;;;;;6.60;3.13;;;16.50;80.30;;;;;;5035570;28;20478;-75
2022/10/06 00:10:01;;;;;;;7.00;3.27;;;16.50;80.20;;;;;;5036180;28;20452;-75
2022/10/06 00:12:28;;;;;;;5.43;3.00;;;16.50;80.30;;;;;;5037314;28;20450;-76
2022/10/06 00:14:58;;;;;;;8.43;3.60;;;16.50;80.40;;;;;;5047022;28;20456;-77
2022/10/06 00:17:26;;;;;;;7.03;3.10;;;16.50;80.40;;;;;;5034934;28;20475;-76
2022/10/06 00:19:54;;;;;;;7.83;3.13;;;16.50;80.40;;;;;;5041420;28;20500;-77
2022/10/06 00:22:21;;;;;;;7.03;2.90;;;16.50;80.50;;;;;;5035061;28;20501;-75
2022/10/06 00:24:49;;;;;;;9.10;3.67;;;16.50;80.60;;;;;;5037010;28;20463;-75
2022/10/06 00:27:17;;;;;;;7.33;3.27;;;16.50;80.60;;;;;;5037256;28;20490;-77
2022/10/06 00:29:45;;;;;;;7.53;3.37;;;16.50;80.70;;;;;;5041389;28;20454;-76
2022/10/06 00:32:14;;;;;;;5.97;3.30;;;16.50;80.70;;;;;;5037740;28;21091;-74
2022/10/06 00:34:43;;;;;;;5.53;2.97;;;16.50;80.70;;;;;;5040215;28;20451;-76
2022/10/06 00:37:11;;;;;;;8.10;3.63;;;16.50;80.80;;;;;;5041401;28;20478;-76
2022/10/06 00:39:38;;;;;;;7.47;3.60;;;16.50;80.80;;;;;;5054155;28;20483;-76
2022/10/06 00:42:19;;;;;;;6.87;3.33;;;16.50;80.70;;;;;;5036915;28;21030;-76
2022/10/06 00:44:48;;;;;;;8.70;4.10;;;16.50;80.80;;;;;;5056067;28;21175;-77
2022/10/06 00:47:19;;;;;;;6.97;3.07;;;16.40;80.80;;;;;;5037796;28;20541;-77
2022/10/06 00:49:47;;;;;;;6.30;3.30;;;16.40;80.80;;;;;;5035905;28;20510;-75
2022/10/06 00:52:21;;;;;;;6.93;3.50;;;16.40;80.80;;;;;;5042195;28;21045;-75
2022/10/06 00:54:49;;;;;;;7.57;3.47;;;16.40;80.90;;;;;;5050401;28;20478;-75
2022/10/06 00:57:18;;;;;;;7.10;3.67;;;16.40;80.90;;;;;;5037938;28;20479;-76
2022/10/06 00:59:46;;;;;;;8.13;3.50;;;16.40;81.00;;;;;;5042023;28;20459;-76
2022/10/06 01:02:21;;;;;;;6.57;3.23;;;16.30;81.00;;;;;;5035219;28;20444;-76
2022/10/06 01:04:54;;;;;;;9.63;3.60;;;16.30;81.10;;;;;;5039291;28;20513;-75
2022/10/06 01:07:26;;;;;;;8.23;2.90;;;16.30;81.10;;;;;;5050717;28;20490;-75
2022/10/06 01:09:55;;;;;;;5.83;3.27;;;16.30;81.10;;;;;;5051010;28;20452;-75
2022/10/06 01:12:25;;;;;;;7.43;3.40;;;16.30;81.20;;;;;;5036793;28;20474;-75
2022/10/06 01:14:55;;;;;;;7.90;3.40;;;16.30;81.20;;;;;;5052208;28;20451;-76
2022/10/06 01:17:32;;;;;;;5.67;3.30;;;16.30;81.30;;;;;;5039359;28;20501;-76
2022/10/06 01:20:04;;;;;;;9.30;4.07;;;16.30;81.40;;;;;;5036746;28;20459;-77
2022/10/06 01:22:35;;;;;;;7.87;3.47;;;16.30;81.40;;;;;;5034364;28;20483;-77
2022/10/06 01:25:05;;;;;;;6.57;3.20;;;16.30;81.40;;;;;;5032944;28;20512;-76
2022/10/06 01:27:35;;;;;;;7.53;3.20;;;16.30;81.50;;;;;;5044522;28;20471;-76
2022/10/06 01:30:07;;;;;;;8.13;3.20;;;16.30;81.50;;;;;;5038867;28;20463;-76
2022/10/06 01:32:37;;;;;;;7.10;3.60;;;16.30;81.50;;;;;;5033010;28;20539;-76
2022/10/06 01:35:07;;;;;;;6.43;3.23;;;16.30;81.60;;;;;;5051320;28;20459;-75
2022/10/06 01:37:37;;;;;;;6.90;3.37;;;16.30;81.60;;;;;;5051488;28;20489;-76
2022/10/06 01:40:06;;;;;;;9.70;4.03;;;16.30;81.60;;;;;;5035926;28;20459;-75
2022/10/06 01:42:36;;;;;;;6.47;3.73;;;16.30;81.70;;;;;;5055505;28;20516;-76
2022/10/06 01:45:05;;;;;;;9.13;3.80;;;16.30;81.70;;;;;;5054288;28;20455;-76
2022/10/06 01:47:34;;;;;;;8.70;4.20;;;16.30;81.60;;;;;;5037049;28;20860;-76
2022/10/06 01:50:07;;;;;;;12.23;3.97;;;16.30;81.70;;;;;;5037674;28;20479;-76
2022/10/06 01:52:36;;;;;;;9.90;3.80;;;16.30;81.60;;;;;;5038633;28;20509;-75
2022/10/06 01:55:05;;;;;;;9.07;3.83;;;16.30;81.60;;;;;;5035204;28;20466;-75
2022/10/06 01:57:38;;;;;;;10.87;4.03;;;16.30;81.60;;;;;;5036875;28;20562;-76
2022/10/06 02:00:08;;;;;;;8.77;3.97;;;16.30;81.60;;;;;;5036796;28;20839;-75
2022/10/06 02:02:39;;;;;;;7.43;3.90;;;16.30;81.50;;;;;;5043884;28;20525;-77
2022/10/06 02:05:08;;;;;;;5.80;3.23;;;16.30;81.60;;;;;;5044922;28;20447;-75
2022/10/06 02:07:41;;;;;;;8.23;3.40;;;16.30;81.70;;;;;;5041638;28;20490;-75
2022/10/06 02:10:12;;;;;;;9.07;3.90;;;16.30;81.70;;;;;;5059767;28;20539;-75
2022/10/06 02:12:42;;;;;;;7.20;3.77;;;16.30;81.70;;;;;;5040410;28;20904;-74
2022/10/06 02:15:10;;;;;;;6.53;3.87;;;16.30;81.70;;;;;;5048396;28;20542;-76
2022/10/06 02:17:39;;;;;;;7.60;3.90;;;16.30;81.70;;;;;;5045838;28;21001;-75
2022/10/06 02:20:07;;;;;;;7.00;3.20;;;16.30;81.80;;;;;;5042967;28;20466;-76
2022/10/06 02:22:38;;;;;;;7.90;3.80;;;16.30;81.80;;;;;;5046004;28;20455;-75
2022/10/06 02:25:08;;;;;;;8.63;4.13;;;16.30;81.90;;;;;;5043064;28;20487;-74
2022/10/06 02:27:37;;;;;;;6.93;4.20;;;16.30;82.00;;;;;;5040543;28;20510;-74
2022/10/06 02:30:08;;;;;;;8.70;3.83;;;16.40;82.00;;;;;;5041727;28;20455;-75
2022/10/06 02:32:38;;;;;;;8.60;4.07;;;16.40;82.00;;;;;;5051175;28;21002;-76
2022/10/06 02:35:09;;;;;;;9.03;3.63;;;16.40;82.10;;;;;;5057507;28;20473;-75
2022/10/06 02:37:37;;;;;;;12.60;3.70;;;16.40;82.10;;;;;;5060144;28;20511;-76
2022/10/06 02:40:09;;;;;;;8.10;3.40;;;16.40;82.20;;;;;;5043219;28;20473;-75
2022/10/06 02:42:38;;;;;;;7.47;3.70;;;16.50;82.30;;;;;;5048194;28;20467;-75
2022/10/06 02:45:07;;;;;;;7.73;3.87;;;16.50;82.30;;;;;;5045035;28;20984;-75
2022/10/06 02:47:36;;;;;;;6.53;3.83;;;16.50;82.40;;;;;;5050174;28;20906;-74
2022/10/06 02:50:06;;;;;;;8.20;3.73;;;16.50;82.40;;;;;;5040105;28;20979;-75
2022/10/06 02:52:37;;;;;;;8.30;3.30;;;16.50;82.40;;;;;;5061592;28;21324;-74
2022/10/06 02:55:09;;;;;;;5.50;3.23;;;16.50;82.40;;;;;;5048690;28;20463;-76
2022/10/06 02:57:37;;;;;;;9.57;4.20;;;16.50;82.50;;;;;;5064668;28;20486;-75
2022/10/06 03:00:07;;;;;;;7.40;3.40;;;16.50;82.50;;;;;;5042745;28;20455;-75
2022/10/06 03:02:35;;;;;;;7.83;3.87;;;16.60;82.60;;;;;;5044268;28;20455;-77
2022/10/06 03:05:05;;;;;;;9.70;3.70;;;16.60;82.70;;;;;;5048002;28;20829;-75
2022/10/06 03:07:34;;;;;;;9.03;3.63;;;16.60;82.70;;;;;;5040448;28;20549;-75
2022/10/06 03:10:02;;;;;;;7.30;3.63;;;16.60;82.80;;;;;;5039004;28;20483;-76
2022/10/06 03:12:32;;;;;;;10.63;4.23;;;16.60;82.80;;;;;;5041193;28;20459;-77
2022/10/06 03:15:00;;;;;;;9.27;4.13;;;16.70;82.80;;;;;;5037569;28;20558;-77
2022/10/06 03:17:28;;;;;;;11.70;4.27;;;16.70;82.90;;;;;;5039681;28;21026;-77
2022/10/06 03:19:57;;;;;;;8.80;3.80;;;16.70;83.00;;;;;;5057747;28;20467;-75
2022/10/06 03:22:26;;;;;;;8.73;3.80;;;16.70;83.00;;;;;;5057470;28;20459;-75
2022/10/06 03:24:56;;;;;;;7.83;3.50;;;16.70;83.00;;;;;;5055312;28;20583;-76
2022/10/06 03:27:25;;;;;;;11.20;3.73;;;16.70;83.10;;;;;;5040195;28;20542;-76
2022/10/06 03:29:59;;;;;;;5.63;3.37;;;16.70;83.10;;;;;;5044000;28;20463;-75
2022/10/06 03:32:30;;;;;;;9.60;4.27;;;16.80;83.10;;;;;;5046771;28;20867;-75
2022/10/06 03:34:58;;;;;;;8.70;4.20;;;16.80;83.10;;;;;;5043609;28;20461;-76
2022/10/06 03:37:28;;;;;;;9.23;4.73;;;16.80;83.20;;;;;;5046503;28;20533;-76
2022/10/06 03:39:56;;;;;;;10.43;3.93;;;16.80;83.20;;;;;;5045443;28;20473;-76
2022/10/06 03:42:24;;;;;;;9.80;4.60;;;16.80;83.20;;;;;;5066420;28;20458;-76
2022/10/06 03:44:53;;;;;;;19.23;4.73;;;16.80;83.30;;;;;;5044499;28;21011;-75
2022/10/06 03:47:22;;;;;;;10.77;4.70;;;16.80;83.30;;;;;;5052715;28;20503;-76
2022/10/06 03:49:50;;;;;;;9.30;4.40;;;16.80;83.30;;;;;;5059101;28;20455;-75
2022/10/06 03:52:18;;;;;;;9.03;4.00;;;16.90;83.40;;;;;;5048727;28;21556;-76
2022/10/06 03:54:52;;;;;;;8.53;4.10;;;16.90;83.40;;;;;;5038167;28;20459;-75
2022/10/06 03:57:21;;;;;;;8.17;3.73;;;16.90;83.40;;;;;;5036447;28;20582;-77
2022/10/06 03:59:50;;;;;;;8.83;4.20;;;16.90;83.40;;;;;;5044671;28;21135;-75
2022/10/06 04:02:18;;;;;;;9.30;4.70;;;16.90;83.50;;;;;;5037605;28;20464;-75
2022/10/06 04:04:47;;;;;;;8.60;4.70;;;16.90;83.40;;;;;;5046604;28;20562;-76
2022/10/06 04:07:15;;;;;;;12.23;4.10;;;16.90;83.40;;;;;;5038067;28;20488;-77
2022/10/06 04:09:45;;;;;;;9.57;3.70;;;16.90;83.50;;;;;;5054792;28;21182;-76
2022/10/06 04:12:13;;;;;;;8.80;4.13;;;16.90;83.60;;;;;;5037470;28;20454;-77
2022/10/06 04:14:43;;;;;;;9.07;3.40;;;16.90;83.60;;;;;;5053218;28;20447;-76
2022/10/06 04:17:11;;;;;;;11.80;4.10;;;16.90;83.60;;;;;;5043380;28;20480;-75
2022/10/06 04:19:40;;;;;;;8.07;4.53;;;16.80;83.60;;;;;;5051187;28;20452;-76
2022/10/06 04:22:09;;;;;;;6.83;3.33;;;16.80;83.60;;;;;;5033558;28;20463;-76
2022/10/06 04:24:37;;;;;;;8.23;3.90;;;16.80;83.60;;;;;;5044735;28;20482;-75
2022/10/06 04:29:57;;;;;;;8.17;4.40;;;16.80;83.70;;;;;;5054452;28;20459;-74
2022/10/06 04:32:25;;;;;;;9.43;3.87;;;16.80;83.70;;;;;;5037582;28;21247;-77
2022/10/06 04:34:53;;;;;;;7.67;3.70;;;16.80;83.70;;;;;;5054796;28;21054;-77
2022/10/06 04:37:25;;;;;;;5.73;3.17;;;16.80;83.60;;;;;;5046608;28;20544;-75
2022/10/06 04:39:53;;;;;;;8.03;3.43;;;16.80;83.60;;;;;;5053332;28;20946;-77
2022/10/06 04:42:21;;;;;;;9.50;3.10;;;16.70;83.60;;;;;;5052085;28;20483;-76
2022/10/06 04:44:49;;;;;;;8.03;2.57;;;16.70;83.70;;;;;;5038049;28;20579;-76
2022/10/06 04:47:17;;;;;;;11.60;4.20;;;16.70;83.60;;;;;;5042078;28;20487;-76
2022/10/06 04:49:46;;;;;;;6.00;3.13;;;16.70;83.60;;;;;;5054168;28;20458;-77
2022/10/06 04:52:14;;;;;;;8.93;2.47;;;16.70;83.60;;;;;;5051930;28;20462;-75
2022/10/06 04:54:44;;;;;;;5.80;2.60;;;16.60;83.60;;;;;;5034736;28;20494;-76
2022/10/06 04:57:12;;;;;;;4.43;1.90;;;16.60;83.60;;;;;;5034846;28;20486;-76
2022/10/06 05:02:33;;;;;;;6.40;2.67;;;16.60;83.60;;;;;;5055302;28;20554;-76
2022/10/06 05:05:01;;;;;;;6.27;2.10;;;16.60;83.60;;;;;;5041278;28;20459;-76
2022/10/06 05:07:29;;;;;;;6.27;2.70;;;16.50;83.60;;;;;;5051625;28;21109;-76
2022/10/06 05:09:59;;;;;;;6.03;3.40;;;16.50;83.70;;;;;;5057919;28;20467;-76
2022/10/06 05:12:29;;;;;;;7.30;3.23;;;16.50;83.70;;;;;;5054145;28;20467;-76
2022/10/06 05:14:57;;;;;;;9.53;3.37;;;16.50;83.80;;;;;;5057047;28;20545;-75
2022/10/06 05:17:25;;;;;;;6.77;3.30;;;16.40;83.90;;;;;;5038606;28;20509;-75
2022/10/06 05:19:54;;;;;;;7.60;3.50;;;16.40;84.00;;;;;;5050551;28;20521;-75
2022/10/06 05:22:22;;;;;;;7.00;3.60;;;16.40;84.00;;;;;;5037450;28;20686;-74
2022/10/06 05:24:52;;;;;;;7.73;3.30;;;16.40;84.10;;;;;;5045427;28;21015;-77
2022/10/06 05:27:22;;;;;;;7.67;2.87;;;16.40;84.10;;;;;;5033820;28;20485;-75
2022/10/06 05:29:51;;;;;;;5.97;2.67;;;16.40;84.10;;;;;;5036277;28;20509;-76
2022/10/06 05:32:19;;;;;;;6.30;2.30;;;16.40;84.10;;;;;;5037520;28;20896;-76
2022/10/06 05:34:47;;;;;;;5.27;2.60;;;16.40;84.10;;;;;;5032183;28;20467;-75
2022/10/06 05:37:15;;;;;;;6.60;2.80;;;16.40;84.10;;;;;;5040459;28;20494;-75
2022/10/06 05:39:45;;;;;;;7.10;2.97;;;16.30;84.20;;;;;;5047458;28;21099;-75
2022/10/06 05:42:13;;;;;;;8.77;2.53;;;16.30;84.20;;;;;;5039512;28;20463;-76
2022/10/06 05:44:42;;;;;;;6.57;2.40;;;16.30;84.20;;;;;;5036345;28;20534;-76
2022/10/06 05:47:12;;;;;;;5.80;2.60;;;16.30;84.30;;;;;;5037764;28;20479;-76
2022/10/06 05:49:41;;;;;;;5.50;2.60;;;16.30;84.30;;;;;;5032972;28;20554;-76
2022/10/06 05:52:09;;;;;;;5.40;2.63;;;16.30;84.30;;;;;;5034630;28;20541;-75
2022/10/06 05:54:37;;;;;;;6.10;2.23;;;16.30;84.20;;;;;;5039331;28;20489;-75
2022/10/06 05:57:07;;;;;;;4.30;1.83;;;16.30;84.20;;;;;;5044558;28;20740;-74
2022/10/06 05:59:35;;;;;;;5.93;1.80;;;16.30;84.20;;;;;;5041011;28;20455;-76
2022/10/06 06:02:06;;;;;;;4.00;1.53;;;16.30;84.10;;;;;;5040825;28;21359;-78
2022/10/06 06:04:38;;;;;;;5.20;2.07;;;16.30;84.10;;;;;;5038521;28;20462;-77
2022/10/06 06:07:06;;;;;;;3.90;1.40;;;16.30;84.10;;;;;;5033349;28;20494;-77
2022/10/06 06:09:34;;;;;;;3.80;1.00;;;16.30;84.00;;;;;;5049807;28;20569;-78
2022/10/06 06:12:04;;;;;;;5.87;1.73;;;16.30;83.90;;;;;;5034386;28;20457;-78
2022/10/06 06:17:34;;;;;;;4.80;1.43;;;16.20;83.90;;;;;;5043866;28;20545;-77
2022/10/06 06:20:05;;;;;;;3.87;1.30;;;16.20;83.90;;;;;;5040287;28;20455;-77
2022/10/06 06:22:34;;;;;;;8.83;1.47;;;16.20;83.80;;;;;;5035675;28;20467;-77
2022/10/06 06:25:03;;;;;;;6.43;1.67;;;16.20;83.70;;;;;;5036649;28;20493;-75
2022/10/06 06:27:31;;;;;;;6.77;1.60;;;16.20;83.70;;;;;;5053780;28;21310;-77
2022/10/06 06:29:59;;;;;;;6.90;1.80;;;16.20;83.70;;;;;;5036604;28;20456;-79
2022/10/06 06:32:28;;;;;;;5.33;1.33;;;16.20;83.70;;;;;;5040922;28;21027;-77
2022/10/06 06:34:58;;;;;;;5.50;1.97;;;16.20;83.70;;;;;;5047992;28;20965;-78
2022/10/06 06:37:28;;;;;;;7.07;1.80;;;16.20;83.70;;;;;;5044095;28;20480;-77
2022/10/06 06:39:57;;;;;;;8.80;1.53;;;16.20;83.70;;;;;;5038791;28;20471;-77
2022/10/06 06:42:25;;;;;;;4.33;1.60;;;16.20;83.70;;;;;;5039310;28;20973;-78
2022/10/06 06:44:58;;;;;;;4.70;1.53;;;16.20;83.70;;;;;;5034944;28;21190;-78
2022/10/06 06:47:37;;;;;;;8.73;2.10;;;16.20;83.70;;;;;;5043097;28;20540;-79
2022/10/06 06:50:09;;;;;;;5.43;1.67;;;16.30;83.60;;;;;;5039867;28;20459;-78
2022/10/06 06:52:40;;;;;;;4.90;2.50;;;16.30;83.60;;;;;;5040905;28;20488;-78
2022/10/06 06:55:11;;;;;;;6.80;2.17;;;16.30;83.60;;;;;;5055026;28;20494;-78
2022/10/06 06:57:41;;;;;;;5.13;1.83;;;16.30;83.60;;;;;;5043861;28;20495;-78
2022/10/06 07:00:10;;;;;;;5.70;2.37;;;16.40;83.50;;;;;;5049971;28;20457;-76
2022/10/06 07:02:39;;;;;;;6.90;1.77;;;16.40;83.60;;;;;;5048203;28;20525;-77
2022/10/06 07:05:09;;;;;;;5.70;1.97;;;16.40;83.60;;;;;;5038562;28;20463;-78
2022/10/06 07:07:38;;;;;;;5.23;1.60;;;16.40;83.50;;;;;;5047086;28;20618;-78
2022/10/06 07:10:07;;;;;;;4.47;1.70;;;16.40;83.40;;;;;;5040735;28;20462;-78
2022/10/06 07:12:35;;;;;;;6.00;2.40;;;16.40;83.40;;;;;;5044669;28;20459;-77
2022/10/06 07:26:15;;;;;;;8.57;3.60;;;16.40;83.40;;;;;;5057015;28;20479;-77
2022/10/06 07:28:43;;;;;;;12.10;2.43;;;16.40;83.40;;;;;;5036162;28;20480;-79
2022/10/06 07:31:15;;;;;;;9.20;2.30;;;16.40;83.40;;;;;;5045515;28;20460;-78
2022/10/06 07:33:43;;;;;;;6.63;2.23;;;16.40;83.40;;;;;;5034972;28;20531;-78
2022/10/06 07:36:15;;;;;;;6.00;2.40;;;16.40;83.40;;;;;;5035330;28;20460;-77
2022/10/06 07:38:43;;;;;;;8.33;2.20;;;16.40;83.40;;;;;;5036502;28;20488;-78
2022/10/06 07:41:11;;;;;;;10.10;2.40;;;16.40;83.40;;;;;;5041855;28;20456;-79
2022/10/06 07:43:54;;;;;;;5.23;1.77;;;16.40;83.20;;;;;;5052939;28;20960;-78
2022/10/06 07:46:24;;;;;;;8.40;2.60;;;16.30;83.30;;;;;;5043442;28;21066;-78
2022/10/06 07:49:16;;;;;;;8.90;1.80;;;16.30;83.30;;;;;;5039912;28;20463;-78
2022/10/06 07:51:45;;;;;;;4.40;1.80;;;16.30;83.40;;;;;;5038498;28;20459;-76
2022/10/06 07:54:13;;;;;;;4.83;1.50;;;16.30;83.30;;;;;;5045014;28;20963;-77
2022/10/06 07:56:59;;;;;;;4.50;1.37;;;16.30;83.30;;;;;;5039751;28;20826;-76
2022/10/06 07:59:27;;;;;;;7.33;1.30;;;16.40;83.30;;;;;;5041344;28;20466;-76
2022/10/06 08:01:55;;;;;;;5.47;1.20;;;16.40;83.10;;;;;;5053870;28;20455;-76
2022/10/06 08:04:23;;;;;;;6.07;1.40;;;16.50;83.10;;;;;;5053547;28;21087;-76
2022/10/06 08:06:56;;;;;;;5.73;1.23;;;16.50;82.90;;;;;;5038581;28;20479;-75
2022/10/06 08:09:24;;;;;;;4.90;1.30;;;16.50;82.70;;;;;;5052611;28;20459;-75
2022/10/06 08:11:52;;;;;;;4.57;1.20;;;16.50;82.60;;;;;;5036727;28;20501;-77
2022/10/06 08:14:21;;;;;;;10.17;2.23;;;16.50;82.40;;;;;;5041467;28;20463;-77
2022/10/06 08:16:49;;;;;;;8.43;1.90;;;16.50;82.20;;;;;;5053696;28;20460;-76
2022/10/06 08:19:18;;;;;;;5.13;1.30;;;16.50;81.70;;;;;;5039159;28;20458;-76
2022/10/06 08:21:46;;;;;;;11.37;1.60;;;16.40;81.10;;;;;;5039117;28;20463;-76
2022/10/06 08:24:16;;;;;;;6.70;1.03;;;16.40;80.50;;;;;;5037261;28;21039;-76
2022/10/06 08:26:43;;;;;;;7.37;1.70;;;16.30;80.50;;;;;;5030247;28;20480;-77
2022/10/06 08:29:11;;;;;;;4.67;1.17;;;16.30;80.70;;;;;;5032624;28;20545;-76
2022/10/06 08:31:39;;;;;;;6.27;1.40;;;16.30;80.40;;;;;;5036617;28;20460;-77
2022/10/06 08:34:08;;;;;;;8.00;1.60;;;16.20;79.80;;;;;;5045924;28;20454;-76
2022/10/06 08:36:39;;;;;;;6.80;1.20;;;16.20;79.70;;;;;;5038431;28;20451;-76
2022/10/06 08:39:20;;;;;;;8.73;1.60;;;16.20;79.50;;;;;;5040499;28;21086;-76
2022/10/06 08:41:52;;;;;;;8.57;1.07;;;16.10;79.90;;;;;;5038069;28;20456;-76
2022/10/06 08:44:29;;;;;;;4.77;1.17;;;16.20;79.80;;;;;;5039728;28;20459;-76
2022/10/06 08:47:00;;;;;;;5.27;1.50;;;16.20;79.30;;;;;;5034376;28;20483;-76
2022/10/06 08:49:34;;;;;;;6.53;1.10;;;16.20;78.20;;;;;;5040327;28;20470;-77
2022/10/06 08:52:16;;;;;;;8.73;1.30;;;16.20;78.60;;;;;;5052026;28;20481;-76
2022/10/06 08:54:53;;;;;;;4.83;0.90;;;16.30;78.10;;;;;;5034826;28;20981;-76
2022/10/06 08:57:29;;;;;;;7.97;1.10;;;16.30;78.40;;;;;;5038771;28;20884;-76
2022/10/06 08:59:58;;;;;;;5.97;1.30;;;16.30;78.30;;;;;;5036167;28;20528;-75
2022/10/06 09:02:31;;;;;;;5.63;1.33;;;16.30;78.20;;;;;;5038713;28;20470;-78
2022/10/06 09:05:02;;;;;;;5.40;1.70;;;16.30;77.90;;;;;;5023552;28;20475;-74
2022/10/06 09:07:40;;;;;;;7.43;1.50;;;16.40;78.00;;;;;;5035362;28;21004;-77
2022/10/06 09:10:36;;;;;;;5.70;1.40;;;16.40;77.20;;;;;;5054094;28;20455;-77
2022/10/06 09:13:08;;;;;;;10.13;1.37;;;16.50;77.50;;;;;;5036873;28;20447;-77
2022/10/06 09:15:41;;;;;;;5.63;1.60;;;16.50;77.30;;;;;;5032430;28;20463;-76
2022/10/06 09:18:15;;;;;;;6.47;1.57;;;16.50;77.20;;;;;;5033592;28;20563;-78
2022/10/06 09:20:50;;;;;;;7.50;1.10;;;16.60;77.10;;;;;;5039588;28;20463;-76
2022/10/06 09:23:46;;;;;;;5.50;1.10;;;16.60;76.90;;;;;;5038360;28;20456;-74
2022/10/06 09:26:12;;;;;;;6.00;1.40;;;16.60;76.50;;;;;;5034915;28;20977;-77
2022/10/06 09:28:40;;;;;;;8.53;1.20;;;16.60;76.70;;;;;;5039473;28;21167;-77
2022/10/06 09:31:20;;;;;;;6.10;1.00;;;16.60;76.50;;;;;;5034524;28;20478;-77
2022/10/06 09:33:52;;;;;;;7.53;1.50;;;16.60;76.30;;;;;;5034793;28;20452;-76
2022/10/06 09:36:20;;;;;;;7.27;1.40;;;16.60;76.20;;;;;;5036008;28;20458;-76
2022/10/06 09:38:53;;;;;;;7.30;2.00;;;16.70;75.90;;;;;;5033492;28;20475;-76
2022/10/06 09:41:28;;;;;;;8.90;0.90;;;16.60;75.60;;;;;;5040035;28;20474;-75
2022/10/06 09:44:01;;;;;;;6.43;1.37;;;16.60;75.40;;;;;;5039728;28;20460;-76
2022/10/06 09:46:32;;;;;;;7.40;1.50;;;16.70;75.60;;;;;;5036762;28;20483;-75
2022/10/06 09:49:14;;;;;;;5.93;1.27;;;16.60;74.80;;;;;;5037722;28;21067;-75
2022/10/06 09:51:55;;;;;;;8.97;1.50;;;16.70;75.30;;;;;;5038053;28;21072;-76
2022/10/06 09:54:23;;;;;;;5.50;1.40;;;16.70;75.00;;;;;;5030222;28;20474;-76
2022/10/06 09:56:54;;;;;;;11.03;1.40;;;16.70;74.80;;;;;;5036386;28;20815;-76
2022/10/06 09:59:28;;;;;;;8.87;1.50;;;16.70;74.60;;;;;;5039401;28;20989;-75
2022/10/06 10:01:58;;;;;;;6.70;1.60;;;16.70;74.70;;;;;;5038139;28;20458;-76
2022/10/06 10:04:30;;;;;;;8.43;1.37;;;16.70;74.20;;;;;;5032948;28;20491;-74
2022/10/06 10:07:15;;;;;;;9.07;1.10;;;16.70;74.40;;;;;;5053952;28;20867;-75
2022/10/06 10:09:43;;;;;;;6.17;1.90;;;16.70;74.20;;;;;;5040868;28;20482;-76
2022/10/06 10:12:26;;;;;;;6.30;1.10;;;16.70;74.10;;;;;;5036027;28;20460;-74
2022/10/06 10:14:57;;;;;;;5.40;1.10;;;16.70;73.80;;;;;;5040909;28;20482;-75
2022/10/06 10:17:37;;;;;;;9.00;1.53;;;16.80;73.50;;;;;;5042023;28;20471;-75
2022/10/06 10:20:22;;;;;;;12.60;2.73;;;16.80;73.40;;;;;;5043668;28;20948;-76
2022/10/06 10:22:53;;;;;;;7.60;1.40;;;16.80;73.30;;;;;;5047851;28;20447;-77
2022/10/06 10:25:40;;;;;;;7.30;1.67;;;16.90;73.50;;;;;;5043719;28;20475;-76
2022/10/06 10:28:27;;;;;;;5.00;1.53;;;17.00;73.20;;;;;;5047240;28;20470;-76
2022/10/06 10:31:02;;;;;;;5.50;1.40;;;17.10;73.10;;;;;;5043521;28;20465;-76
2022/10/06 10:33:40;;;;;;;6.67;1.47;;;17.20;73.20;;;;;;5040939;28;20462;-75
2022/10/06 10:36:33;;;;;;;7.57;1.30;;;17.30;73.00;;;;;;5042241;28;20897;-75
2022/10/06 10:39:01;;;;;;;10.20;1.27;;;17.40;72.70;;;;;;5042555;28;20974;-76
2022/10/06 10:41:44;;;;;;;4.30;1.10;;;17.50;72.50;;;;;;5044392;28;20462;-75
2022/10/06 10:44:27;;;;;;;5.30;1.10;;;17.60;72.30;;;;;;5041018;28;20525;-76
2022/10/06 10:47:05;;;;;;;6.93;1.53;;;17.60;72.10;;;;;;5041888;28;20458;-76
2022/10/06 10:49:34;;;;;;;4.73;1.13;;;17.60;71.90;;;;;;5039836;28;21003;-76
2022/10/06 10:52:09;;;;;;;7.33;1.13;;;17.70;71.90;;;;;;5040725;28;21058;-76
2022/10/06 10:54:44;;;;;;;4.73;1.20;;;17.70;71.50;;;;;;5038762;28;20463;-75
2022/10/06 10:57:16;;;;;;;9.33;1.30;;;17.70;71.50;;;;;;5038101;28;20470;-76
2022/10/06 10:59:56;;;;;;;4.40;1.33;;;17.70;71.30;;;;;;5040959;28;20465;-74
2022/10/06 11:02:24;;;;;;;5.33;1.00;;;17.80;71.10;;;;;;5042590;28;20459;-76
2022/10/06 11:04:58;;;;;;;6.60;1.30;;;17.80;71.00;;;;;;5042385;28;21148;-75
2022/10/06 11:07:32;;;;;;;6.73;1.13;;;17.80;70.80;;;;;;5042799;28;20560;-75
2022/10/06 11:10:08;;;;;;;6.87;1.27;;;17.80;70.60;;;;;;5041305;28;20843;-75
2022/10/06 11:12:55;;;;;;;5.67;0.90;;;17.80;70.50;;;;;;5036581;28;20532;-74
2022/10/06 11:15:39;;;;;;;9.43;1.10;;;17.80;70.50;;;;;;5040110;28;20458;-76
2022/10/06 11:18:21;;;;;;;11.43;1.90;;;17.80;70.40;;;;;;5034828;28;20476;-75
2022/10/06 11:20:53;;;;;;;7.23;1.37;;;17.80;70.30;;;;;;5043366;28;20443;-76
2022/10/06 11:23:40;;;;;;;6.77;1.27;;;17.80;70.20;;;;;;5038138;28;20858;-76
2022/10/06 11:26:23;;;;;;;6.77;1.33;;;17.80;70.00;;;;;;5040359;28;20509;-76
2022/10/06 11:28:59;;;;;;;6.83;1.00;;;17.90;69.90;;;;;;5047463;28;20482;-76
2022/10/06 11:31:35;;;;;;;5.63;1.27;;;17.90;69.90;;;;;;5040452;28;20490;-76
2022/10/06 11:34:05;;;;;;;6.37;1.10;;;17.90;69.80;;;;;;5038411;28;20509;-75
2022/10/06 11:36:42;;;;;;;4.60;1.17;;;17.90;69.70;;;;;;5037528;28;20448;-76
2022/10/06 11:39:19;;;;;;;4.87;1.63;;;17.90;69.40;;;;;;5038061;28;20565;-74
2022/10/06 11:41:49;;;;;;;6.57;1.33;;;17.90;69.30;;;;;;5041569;28;20447;-76
2022/10/06 11:44:24;;;;;;;6.60;1.20;;;17.90;69.00;;;;;;5056647;28;20467;-75
2022/10/06 11:46:57;;;;;;;4.50;1.00;;;17.90;69.00;;;;;;5040185;28;20512;-75
2022/10/06 11:49:56;;;;;;;4.50;0.90;;;17.90;69.10;;;;;;5037774;28;20476;-75
2022/10/06 11:52:46;;;;;;;5.47;1.00;;;17.90;68.50;;;;;;5056134;28;20875;-77
2022/10/06 11:55:20;;;;;;;9.00;1.20;;;17.90;68.90;;;;;;5037873;28;20448;-77
2022/10/06 11:58:05;;;;;;;5.87;1.23;;;18.00;68.80;;;;;;5040970;28;20482;-76
2022/10/06 12:00:53;;;;;;;6.40;1.07;;;18.00;68.10;;;;;;5040012;28;21142;-76
2022/10/06 12:04:02;;;;;;;4.80;0.93;;;17.90;68.50;;;;;;5039626;28;20464;-76
2022/10/06 12:07:04;;;;;;;7.03;1.00;;;18.00;68.30;;;;;;5007822;28;20466;-76
2022/10/06 12:09:44;;;;;;;5.63;1.10;;;18.00;67.70;;;;;;5037924;28;20563;-75
2022/10/06 12:12:45;;;;;;;7.23;1.37;;;18.00;68.10;;;;;;5035449;28;20474;-75
2022/10/06 12:16:11;;;;;;;5.80;0.73;;;18.00;68.00;;;;;;5037968;28;20486;-76
2022/10/06 12:19:10;;;;;;;5.77;1.17;;;18.00;67.80;;;;;;5041130;28;20566;-75
2022/10/06 12:21:47;;;;;;;4.80;1.13;;;18.00;67.50;;;;;;5040218;28;20812;-74
2022/10/06 12:24:35;;;;;;;4.60;1.00;;;18.10;67.80;;;;;;5039346;28;20455;-74
2022/10/06 12:27:24;;;;;;;4.23;0.70;;;18.10;67.70;;;;;;5036347;28;20462;-76
2022/10/06 12:30:03;;;;;;;6.07;0.93;;;18.10;67.60;;;;;;5041647;28;20478;-76
2022/10/06 12:32:45;;;;;;;4.13;1.10;;;18.10;67.60;;;;;;5036037;28;20466;-74
2022/10/06 12:35:28;;;;;;;5.03;1.10;;;18.10;67.60;;;;;;5039688;28;20459;-75
2022/10/06 12:37:59;;;;;;;7.67;1.20;;;18.10;67.50;;;;;;5040046;28;20479;-77
2022/10/06 12:40:50;;;;;;;5.33;1.07;;;18.10;67.50;;;;;;5040543;28;20451;-75
2022/10/06 12:43:49;;;;;;;5.90;1.33;;;18.10;67.20;;;;;;5039238;28;20451;-74
2022/10/06 12:46:25;;;;;;;6.63;1.10;;;18.10;67.30;;;;;;5037164;28;20953;-76
2022/10/06 12:49:07;;;;;;;4.93;0.80;;;18.10;67.30;;;;;;5037504;28;21080;-76
2022/10/06 12:51:39;;;;;;;5.27;1.27;;;18.20;67.30;;;;;;5036068;28;20446;-76
2022/10/06 12:54:18;;;;;;;9.53;1.07;;;18.20;67.30;;;;;;5043844;28;20462;-76
2022/10/06 12:56:57;;;;;;;7.53;1.60;;;18.20;67.20;;;;;;5035036;28;20447;-76
2022/10/06 12:59:27;;;;;;;6.77;1.40;;;18.20;67.10;;;;;;5037429;28;20452;-75
2022/10/06 13:01:58;;;;;;;7.50;1.33;;;18.20;67.10;;;;;;5039959;28;20469;-74
2022/10/06 13:04:32;;;;;;;5.03;1.00;;;18.20;66.60;;;;;;5038538;28;20461;-75
2022/10/06 13:07:05;;;;;;;3.60;0.73;;;18.20;66.70;;;;;;5054992;28;20474;-73
2022/10/06 13:09:36;;;;;;;13.63;1.57;;;18.10;66.60;;;;;;5035994;28;21102;-75
2022/10/06 13:12:20;;;;;;;4.90;1.40;;;18.20;66.70;;;;;;5034680;28;20462;-76
2022/10/06 13:15:08;;;;;;;7.93;1.43;;;18.20;66.10;;;;;;5056947;28;20476;-76
2022/10/06 13:17:40;;;;;;;8.77;1.17;;;18.20;66.30;;;;;;5040490;28;20561;-76
2022/10/06 13:20:26;;;;;;;4.70;0.97;;;18.20;66.20;;;;;;5040217;28;20977;-75
2022/10/06 13:23:05;;;;;;;6.67;1.40;;;18.20;66.10;;;;;;5038403;28;20452;-75
2022/10/06 13:25:44;;;;;;;9.20;1.30;;;18.20;66.20;;;;;;5036408;28;20555;-76
2022/10/06 13:28:46;;;;;;;5.30;1.00;;;18.20;66.10;;;;;;5034184;28;20483;-76
2022/10/06 13:31:20;;;;;;;8.50;1.20;;;18.20;66.10;;;;;;5016803;28;20525;-76
2022/10/06 13:33:52;;;;;;;6.30;1.80;;;18.20;66.20;;;;;;5040220;28;20439;-74